Time;durP1;ratioP1;P1;durP2;ratioP2;P2;SDS_P1;SDS_P2;PMS_P1;PMS_P2;Temp;Humidity;BMP_temperature;BMP_pressure;BME280_temperature;BME280_humidity;BME280_pressure;Samples;Min_cycle;Max_cycle;Signal;HPM_P1;HPM_P2
2023/06/07 00:00:14;;;;;;;5.03;4.53;;;;;;;18.88;53.25;101316.22;4896871;29;20409;-70
2023/06/07 00:02:44;;;;;;;5.33;4.80;;;;;;;18.93;53.03;101310.84;4902700;29;20433;-68
2023/06/07 00:05:14;;;;;;;7.10;4.83;;;;;;;18.94;52.85;101312.50;4900871;29;20512;-69
2023/06/07 00:07:44;;;;;;;6.00;5.10;;;;;;;18.93;52.73;101310.00;4903636;29;20449;-71
2023/06/07 00:10:15;;;;;;;5.13;4.30;;;;;;;18.97;52.67;101313.94;4906693;29;20413;-71
2023/06/07 00:12:44;;;;;;;7.27;4.87;;;;;;;18.98;52.31;101321.06;4907038;29;20407;-67
2023/06/07 00:15:17;;;;;;;5.10;4.60;;;;;;;18.79;53.08;101316.88;4913104;29;20575;-71
2023/06/07 00:17:46;;;;;;;6.10;4.60;;;;;;;18.91;52.59;101312.19;4899147;29;20641;-71
2023/06/07 00:20:15;;;;;;;5.97;5.10;;;;;;;18.86;52.68;101317.56;4908918;29;20466;-70
2023/06/07 00:22:47;;;;;;;7.40;4.43;;;;;;;18.78;53.07;101309.75;4909549;29;20503;-70
2023/06/07 00:25:16;;;;;;;6.23;5.50;;;;;;;18.77;52.99;101319.06;4913798;29;20444;-70
2023/06/07 00:27:45;;;;;;;5.17;4.77;;;;;;;18.73;53.12;101309.66;4917222;29;20432;-70
2023/06/07 00:30:23;;;;;;;7.17;4.50;;;;;;;18.67;53.22;101306.81;4897023;29;20446;-70
2023/06/07 00:32:52;;;;;;;6.33;4.30;;;;;;;18.72;53.08;101305.25;4899420;29;20861;-71
2023/06/07 00:35:23;;;;;;;5.13;4.63;;;;;;;18.58;53.43;101311.03;4908098;29;20509;-70
2023/06/07 00:37:52;;;;;;;5.07;4.57;;;;;;;18.61;53.36;101313.28;4908734;29;20447;-72
2023/06/07 00:40:23;;;;;;;6.53;4.70;;;;;;;18.58;53.37;101311.03;4898263;29;20427;-70
2023/06/07 00:42:52;;;;;;;4.83;4.33;;;;;;;18.67;53.41;101301.34;4896754;29;20520;-72
2023/06/07 00:45:23;;;;;;;5.23;4.70;;;;;;;18.69;53.39;101303.00;4906616;29;20433;-71
2023/06/07 00:47:52;;;;;;;5.53;5.03;;;;;;;18.58;53.77;101305.56;4907128;29;20541;-70
2023/06/07 00:50:22;;;;;;;4.53;4.03;;;;;;;18.54;53.74;101306.28;4908461;29;20563;-72
2023/06/07 00:52:52;;;;;;;9.33;4.67;;;;;;;18.43;54.09;101304.41;4913934;29;20455;-70
2023/06/07 00:55:22;;;;;;;3.97;3.40;;;;;;;18.37;54.38;101306.19;4907229;29;20757;-70
2023/06/07 00:57:53;;;;;;;5.00;3.87;;;;;;;18.33;54.30;101305.03;4916509;29;20466;-70
2023/06/07 01:00:26;;;;;;;5.13;4.63;;;;;;;18.43;53.93;101309.88;4914033;29;20440;-68
2023/06/07 01:02:56;;;;;;;7.80;4.80;;;;;;;18.32;54.41;101308.00;4911150;29;20440;-69
2023/06/07 01:05:26;;;;;;;6.03;4.70;;;;;;;18.40;54.12;101305.69;4906956;29;20460;-69
2023/06/07 01:07:58;;;;;;;4.57;4.00;;;;;;;18.31;54.38;101307.16;4905560;29;20538;-68
2023/06/07 01:10:28;;;;;;;4.73;4.30;;;;;;;18.33;54.18;101307.75;4908997;29;20859;-69
2023/06/07 01:12:59;;;;;;;7.47;3.80;;;;;;;18.27;54.21;101306.00;4911682;29;20869;-72
2023/06/07 01:15:32;;;;;;;10.50;5.20;;;;;;;18.34;53.86;101306.69;4903946;29;20951;-69
2023/06/07 01:18:02;;;;;;;6.90;4.57;;;;;;;18.35;53.69;101318.50;4905582;29;20512;-72
2023/06/07 01:20:36;;;;;;;5.70;5.20;;;;;;;18.34;53.79;101311.34;4901439;29;20786;-72
2023/06/07 01:23:09;;;;;;;5.97;5.37;;;;;;;18.40;53.60;101313.91;4895083;29;20438;-71
2023/06/07 01:25:40;;;;;;;5.03;4.60;;;;;;;18.38;53.52;101307.88;4899248;29;20833;-67
2023/06/07 01:28:09;;;;;;;4.43;4.03;;;;;;;18.31;53.62;101312.63;4907030;29;20497;-69
2023/06/07 01:30:40;;;;;;;5.43;4.60;;;;;;;18.34;53.01;101303.94;4899724;29;20412;-69
2023/06/07 01:33:10;;;;;;;7.73;4.37;;;;;;;18.29;53.34;101301.13;4894701;29;20475;-69
2023/06/07 01:35:41;;;;;;;4.77;3.37;;;;;;;18.38;53.13;101307.03;4895405;29;20458;-68
2023/06/07 01:38:15;;;;;;;6.63;4.80;;;;;;;18.22;53.42;101297.66;4901708;29;20436;-69
2023/06/07 01:40:46;;;;;;;7.07;4.20;;;;;;;18.16;53.38;101298.63;4902680;29;20842;-70
2023/06/07 01:43:16;;;;;;;4.83;4.33;;;;;;;18.28;53.27;101290.38;4899191;29;20764;-70
2023/06/07 01:45:46;;;;;;;5.13;4.60;;;;;;;18.21;52.95;101296.00;4899644;29;20936;-71
2023/06/07 01:48:16;;;;;;;6.33;3.80;;;;;;;18.18;52.88;101291.00;4899081;29;20438;-71
2023/06/07 01:50:46;;;;;;;4.67;4.17;;;;;;;18.19;52.87;101295.41;4898971;29;20448;-69
2023/06/07 01:53:15;;;;;;;4.63;3.97;;;;;;;18.17;53.02;101287.44;4898118;29;20948;-70
2023/06/07 01:55:46;;;;;;;4.53;3.23;;;;;;;18.28;52.26;101282.16;4903871;29;20456;-70
2023/06/07 01:58:25;;;;;;;7.70;4.60;;;;;;;18.19;52.53;101282.56;4900920;29;20412;-70
2023/06/07 02:01:13;;;;;;;6.10;4.90;;;;;;;18.15;52.56;101286.03;4905339;29;20431;-70
2023/06/07 02:03:47;;;;;;;4.60;3.87;;;;;;;18.18;52.36;101286.38;4897077;29;20449;-70
2023/06/07 02:06:33;;;;;;;6.07;4.13;;;;;;;18.12;52.87;101287.31;4901761;29;20559;-70
2023/06/07 02:09:08;;;;;;;6.70;5.03;;;;;;;18.14;52.60;101281.63;4899051;29;20911;-71
2023/06/07 02:11:40;;;;;;;6.30;3.60;;;;;;;18.08;52.95;101285.31;4901595;29;20434;-70
2023/06/07 02:14:10;;;;;;;6.03;4.47;;;;;;;18.15;52.70;101286.03;4899283;29;20821;-70
2023/06/07 02:16:40;;;;;;;7.30;4.53;;;;;;;18.13;52.65;101282.69;4902238;29;20456;-68
2023/06/07 02:19:12;;;;;;;4.63;4.23;;;;;;;18.11;52.95;101276.59;4908367;29;20417;-69
2023/06/07 02:21:51;;;;;;;3.73;3.40;;;;;;;18.02;52.24;101280.81;4903919;29;20467;-68
2023/06/07 02:24:20;;;;;;;5.73;4.63;;;;;;;18.03;52.29;101283.31;4904523;29;21028;-69
2023/06/07 02:26:53;;;;;;;5.40;4.40;;;;;;;18.11;51.91;101282.91;4901277;29;20861;-68
2023/06/07 02:29:23;;;;;;;6.23;4.87;;;;;;;18.01;52.65;101281.91;4899898;29;20880;-69
2023/06/07 02:31:54;;;;;;;4.77;4.10;;;;;;;18.07;51.81;101283.66;4906847;29;20854;-70
2023/06/07 02:34:23;;;;;;;6.37;3.83;;;;;;;18.12;51.33;101275.53;4904455;29;20412;-67
2023/06/07 02:36:52;;;;;;;8.40;4.37;;;;;;;18.09;51.36;101276.88;4899077;29;20460;-69
2023/06/07 02:39:22;;;;;;;5.00;4.50;;;;;;;18.20;50.86;101277.91;4902007;29;20450;-68
2023/06/07 02:41:53;;;;;;;5.47;4.40;;;;;;;18.07;50.99;101280.91;4895261;29;20499;-69
2023/06/07 02:44:22;;;;;;;4.87;4.37;;;;;;;18.09;50.85;101284.25;4898531;29;20462;-70
2023/06/07 02:46:52;;;;;;;3.93;3.53;;;;;;;17.98;51.09;101279.63;4904418;29;20459;-72
2023/06/07 02:49:21;;;;;;;6.10;4.50;;;;;;;18.08;50.96;101279.84;4905558;29;20446;-69
2023/06/07 02:51:51;;;;;;;5.83;4.40;;;;;;;18.04;51.27;101281.41;4897613;29;20450;-69
2023/06/07 02:54:20;;;;;;;4.30;3.80;;;;;;;17.95;51.48;101280.97;4902584;29;20761;-69
2023/06/07 02:56:54;;;;;;;4.53;4.13;;;;;;;17.93;51.77;101276.78;4913919;29;20512;-71
2023/06/07 02:59:24;;;;;;;4.97;4.47;;;;;;;18.03;51.54;101280.56;4899508;29;20431;-71
2023/06/07 03:01:54;;;;;;;4.67;4.17;;;;;;;17.92;52.04;101286.91;4898172;29;20704;-69
2023/06/07 03:04:26;;;;;;;4.77;3.53;;;;;;;17.97;52.24;101283.44;4898366;29;20446;-71
2023/06/07 03:06:58;;;;;;;4.70;4.20;;;;;;;17.85;52.25;101279.91;4900572;29;21128;-67
2023/06/07 03:09:34;;;;;;;5.13;4.13;;;;;;;17.84;52.43;101279.06;4900486;29;20478;-70
2023/06/07 03:12:06;;;;;;;5.43;4.40;;;;;;;17.81;52.60;101285.84;4894788;29;20811;-71
2023/06/07 03:14:42;;;;;;;5.37;4.43;;;;;;;17.84;52.43;101286.44;4903443;29;20997;-69
2023/06/07 03:17:14;;;;;;;5.13;3.80;;;;;;;17.89;52.44;101290.13;4903390;29;20499;-69
2023/06/07 03:19:46;;;;;;;4.60;3.97;;;;;;;17.75;52.85;101286.81;4898364;29;21028;-70
2023/06/07 03:22:17;;;;;;;5.80;4.50;;;;;;;17.89;52.35;101289.28;4898651;29;20500;-69
2023/06/07 03:24:47;;;;;;;4.23;3.77;;;;;;;17.81;53.09;101285.84;4896285;29;20480;-71
2023/06/07 03:27:22;;;;;;;7.20;4.63;;;;;;;17.81;52.77;101279.56;4896793;29;20947;-70
2023/06/07 03:29:52;;;;;;;5.60;4.50;;;;;;;17.90;52.75;101282.75;4894822;29;20459;-69
2023/06/07 03:32:23;;;;;;;4.13;3.57;;;;;;;17.87;52.81;101288.69;4902090;29;20459;-71
2023/06/07 03:34:54;;;;;;;8.73;4.07;;;;;;;17.93;52.74;101288.56;4904020;29;20437;-68
2023/06/07 03:37:23;;;;;;;5.23;4.37;;;;;;;17.89;53.20;101289.28;4897560;29;20467;-69
2023/06/07 03:39:53;;;;;;;5.57;4.60;;;;;;;18.01;52.81;101293.66;4897461;29;20811;-70
2023/06/07 03:42:24;;;;;;;5.93;4.50;;;;;;;18.41;51.84;101295.56;4898057;29;20441;-71
2023/06/07 03:44:54;;;;;;;5.90;4.20;;;;;;;18.51;51.23;101296.59;4897384;29;20433;-67
2023/06/07 03:47:23;;;;;;;5.53;4.30;;;;;;;18.23;52.06;101293.84;4896287;29;20445;-69
2023/06/07 03:49:52;;;;;;;5.37;4.47;;;;;;;18.11;52.62;101298.53;4897510;29;20404;-72
2023/06/07 03:52:22;;;;;;;4.80;4.23;;;;;;;18.03;52.91;101296.16;4900083;29;20438;-70
2023/06/07 03:54:52;;;;;;;6.83;4.97;;;;;;;18.13;52.34;101293.66;4897237;29;20442;-69
2023/06/07 03:57:23;;;;;;;4.43;4.03;;;;;;;17.98;52.74;101296.06;4892367;29;20526;-68
2023/06/07 03:59:53;;;;;;;5.17;4.50;;;;;;;18.09;52.43;101298.78;4896415;29;20585;-69
2023/06/07 04:02:22;;;;;;;5.97;4.97;;;;;;;18.15;52.51;101302.47;4896295;29;20979;-68
2023/06/07 04:04:52;;;;;;;5.37;4.73;;;;;;;18.20;52.34;101302.56;4898164;29;20432;-70
2023/06/07 04:07:24;;;;;;;5.20;4.17;;;;;;;18.33;52.03;101298.72;4904346;29;20414;-69
2023/06/07 04:09:54;;;;;;;6.57;4.73;;;;;;;18.29;52.11;101290.16;4894294;29;20429;-73
2023/06/07 04:12:25;;;;;;;5.60;5.00;;;;;;;18.32;51.95;101297.88;4914486;29;20848;-69
2023/06/07 04:15:00;;;;;;;5.40;4.53;;;;;;;18.35;51.79;101302.84;4898473;29;20432;-72
2023/06/07 04:17:32;;;;;;;5.30;4.10;;;;;;;18.53;51.88;101304.59;4904313;29;20493;-70
2023/06/07 04:20:01;;;;;;;6.83;4.90;;;;;;;18.74;51.46;101300.34;4902042;29;20820;-70
2023/06/07 04:22:31;;;;;;;8.03;4.33;;;;;;;18.92;50.82;101297.41;4902340;29;20464;-70
2023/06/07 04:25:01;;;;;;;5.90;4.30;;;;;;;18.96;50.43;101295.81;4898763;29;20431;-70
2023/06/07 04:27:32;;;;;;;7.07;5.30;;;;;;;19.02;49.71;101300.31;4906422;29;20441;-70
2023/06/07 04:30:02;;;;;;;8.80;5.60;;;;;;;18.86;50.38;101298.38;4895519;29;20832;-70
2023/06/07 04:32:37;;;;;;;6.17;4.47;;;;;;;19.03;48.98;101300.03;4913981;29;21001;-70
2023/06/07 04:35:11;;;;;;;4.20;3.70;;;;;;;18.82;50.08;101297.22;4898006;29;20409;-70
2023/06/07 04:37:42;;;;;;;7.57;4.37;;;;;;;18.99;49.60;101298.06;4902330;29;20436;-71
2023/06/07 04:40:13;;;;;;;5.87;4.70;;;;;;;19.11;50.13;101296.09;4904863;29;20499;-71
2023/06/07 04:42:55;;;;;;;5.30;4.73;;;;;;;18.96;49.57;101298.56;4897191;29;20430;-68
2023/06/07 04:45:31;;;;;;;6.10;4.97;;;;;;;18.77;49.58;101294.38;4895916;29;20502;-70
2023/06/07 04:48:01;;;;;;;8.70;5.10;;;;;;;18.62;49.95;101295.75;4903940;29;20407;-70
2023/06/07 04:50:31;;;;;;;4.27;3.87;;;;;;;18.79;49.53;101303.16;4898664;29;20932;-72
2023/06/07 04:53:02;;;;;;;7.50;5.00;;;;;;;18.89;49.14;101300.63;4903107;29;20416;-69
2023/06/07 04:55:35;;;;;;;6.83;4.27;;;;;;;18.92;49.23;101297.41;4900604;29;20448;-69
2023/06/07 04:58:08;;;;;;;6.70;5.00;;;;;;;18.89;49.02;101303.34;4894774;29;20458;-70
2023/06/07 05:00:39;;;;;;;12.50;5.67;;;;;;;18.84;49.39;101306.84;4906692;29;20448;-70
2023/06/07 05:03:21;;;;;;;6.63;4.53;;;;;;;18.97;49.08;101298.31;4904771;29;20424;-69
2023/06/07 05:05:55;;;;;;;7.33;5.23;;;;;;;19.11;48.68;101307.06;4905579;29;20938;-70
2023/06/07 05:08:26;;;;;;;6.10;4.67;;;;;;;19.17;47.66;101300.53;4898839;29;20428;-69
2023/06/07 05:10:56;;;;;;;5.47;4.13;;;;;;;20.00;46.81;101304.28;4911093;29;20429;-71
2023/06/07 05:13:27;;;;;;;9.47;4.93;;;;;;;19.88;46.85;101307.16;4905820;29;20443;-69
2023/06/07 05:16:01;;;;;;;7.30;5.87;;;;;;;19.84;46.46;101306.84;4905834;29;20470;-71
2023/06/07 05:18:32;;;;;;;7.80;4.90;;;;;;;19.92;45.87;101308.31;4898336;29;20452;-72
2023/06/07 05:21:02;;;;;;;5.07;4.57;;;;;;;20.18;46.42;101313.06;4903974;29;20443;-71
2023/06/07 05:23:32;;;;;;;8.63;6.87;;;;;;;20.39;45.09;101304.00;4912024;29;20947;-69
2023/06/07 05:26:02;;;;;;;6.60;4.97;;;;;;;20.58;44.53;101300.91;4902864;29;20813;-71
2023/06/07 05:28:33;;;;;;;6.80;4.60;;;;;;;20.20;45.33;101310.06;4899716;29;20504;-70
2023/06/07 05:31:02;;;;;;;5.20;4.00;;;;;;;20.13;45.21;101315.75;5098977;23;20445;-71
2023/06/07 05:33:33;;;;;;;6.33;4.50;;;;;;;20.15;45.19;101305.31;4874774;29;20940;-71
2023/06/07 05:36:02;;;;;;;6.73;4.53;;;;;;;20.44;44.75;101310.66;4852374;29;20475;-72
2023/06/07 05:38:31;;;;;;;6.20;4.60;;;;;;;20.59;44.99;101313.56;4871631;29;20504;-72
2023/06/07 05:41:01;;;;;;;5.20;4.70;;;;;;;20.72;44.42;101318.69;4860279;29;20432;-72
2023/06/07 05:43:32;;;;;;;6.47;4.33;;;;;;;20.60;45.59;101315.22;4849350;29;20440;-70
2023/06/07 05:46:01;;;;;;;9.43;5.10;;;;;;;20.58;45.37;101311.91;4843686;29;20535;-71
2023/06/07 05:48:30;;;;;;;5.63;4.67;;;;;;;20.71;45.47;101309.59;4863356;29;20438;-71
2023/06/07 05:51:00;;;;;;;5.10;4.40;;;;;;;20.82;45.32;101313.25;4873091;29;20452;-71
2023/06/07 05:53:29;;;;;;;6.93;4.77;;;;;;;20.98;45.56;101317.81;4844871;29;20451;-71
2023/06/07 05:55:59;;;;;;;5.40;4.30;;;;;;;20.92;44.57;101313.34;4864972;29;20819;-71
2023/06/07 05:58:30;;;;;;;12.07;4.43;;;;;;;20.98;45.18;101317.81;4844526;29;20444;-72
2023/06/07 06:01:07;;;;;;;6.07;5.27;;;;;;;21.17;44.90;101313.63;4845205;29;20460;-72
2023/06/07 06:03:36;;;;;;;6.77;4.50;;;;;;;21.06;45.38;101303.59;4849690;29;20957;-72
2023/06/07 06:06:15;;;;;;;8.63;4.80;;;;;;;21.20;44.62;101310.34;4846021;29;20545;-71
2023/06/07 06:08:45;;;;;;;7.53;4.83;;;;;;;21.21;44.93;101308.41;4851607;29;20414;-73
2023/06/07 06:11:15;;;;;;;7.70;5.37;;;;;;;21.21;44.22;101317.50;4844197;29;20450;-72
2023/06/07 06:13:45;;;;;;;5.30;4.23;;;;;;;21.34;44.62;101312.66;4843065;29;20427;-72
2023/06/07 06:16:15;;;;;;;8.93;5.90;;;;;;;21.56;43.97;101324.38;4844425;29;20838;-72
2023/06/07 06:18:44;;;;;;;6.80;4.93;;;;;;;21.75;43.75;101320.09;4845019;29;20572;-72
2023/06/07 06:21:14;;;;;;;5.57;4.93;;;;;;;21.84;43.32;101321.25;4845221;29;20968;-72
2023/06/07 06:23:44;;;;;;;9.50;4.43;;;;;;;22.18;41.74;101326.44;4842855;29;20439;-72
2023/06/07 06:26:13;;;;;;;5.90;4.33;;;;;;;22.12;42.64;101319.25;4848985;29;20444;-73
2023/06/07 06:28:42;;;;;;;17.50;7.50;;;;;;;21.74;42.61;101329.47;4843276;29;20441;-71
2023/06/07 06:31:11;;;;;;;6.73;4.60;;;;;;;21.99;42.21;101328.81;4872013;29;20425;-70
2023/06/07 06:33:42;;;;;;;9.60;5.60;;;;;;;22.06;41.61;101327.50;4848887;29;20464;-71
2023/06/07 06:36:11;;;;;;;4.70;4.20;;;;;;;22.37;41.45;101331.19;4842873;29;20526;-71
2023/06/07 06:38:40;;;;;;;6.60;4.10;;;;;;;22.63;39.68;101329.38;4844959;29;20444;-71
2023/06/07 06:41:10;;;;;;;6.50;4.17;;;;;;;22.79;39.73;101344.91;4845367;29;20416;-71
2023/06/07 06:43:40;;;;;;;7.60;4.37;;;;;;;22.87;39.25;101336.06;4851714;29;20427;-71
2023/06/07 06:46:09;;;;;;;4.80;4.07;;;;;;;23.11;37.98;101335.53;4864110;29;20496;-71
2023/06/07 06:48:40;;;;;;;6.13;4.27;;;;;;;23.17;36.69;101337.22;4845888;29;20420;-71
2023/06/07 06:51:10;;;;;;;7.13;4.00;;;;;;;22.85;36.36;101343.78;4843638;29;20448;-71
2023/06/07 06:53:40;;;;;;;4.77;3.80;;;;;;;22.39;36.86;101333.69;4843353;29;20789;-72
2023/06/07 06:56:09;;;;;;;3.93;3.53;;;;;;;22.66;37.37;101339.84;4848504;29;20838;-72
2023/06/07 06:58:38;;;;;;;4.80;3.73;;;;;;;23.07;36.35;101346.31;4845070;29;20481;-72
2023/06/07 07:01:08;;;;;;;8.10;4.00;;;;;;;23.30;36.04;101344.94;4851640;29;20508;-73
2023/06/07 07:03:38;;;;;;;5.53;4.10;;;;;;;23.24;35.67;101343.28;4844885;29;20805;-71
2023/06/07 07:06:35;;;;;;;6.20;4.00;;;;;;;23.54;35.54;101345.25;4858817;29;20479;-73
2023/06/07 07:09:05;;;;;;;5.33;3.67;;;;;;;23.52;34.08;101330.91;4851793;29;20786;-71
2023/06/07 07:11:34;;;;;;;6.33;3.30;;;;;;;23.51;34.88;101341.13;4863990;29;20514;-72
2023/06/07 07:14:04;;;;;;;3.97;3.63;;;;;;;23.71;34.63;101352.16;4869581;29;20448;-72
2023/06/07 07:16:33;;;;;;;8.20;4.67;;;;;;;23.63;35.12;101338.03;4851302;29;20875;-70
2023/06/07 07:19:06;;;;;;;4.20;3.57;;;;;;;23.92;33.88;101336.34;4838696;29;20496;-70
2023/06/07 07:21:37;;;;;;;6.13;4.13;;;;;;;23.67;34.63;101339.16;4855701;29;20440;-71
2023/06/07 07:24:07;;;;;;;8.33;3.87;;;;;;;23.70;34.32;101333.06;4852278;29;20435;-71
2023/06/07 07:26:39;;;;;;;4.40;3.40;;;;;;;23.87;34.50;101332.78;4849099;29;20987;-69
2023/06/07 07:29:08;;;;;;;3.97;3.33;;;;;;;24.11;34.75;101339.31;4841418;29;21052;-72
2023/06/07 07:31:37;;;;;;;4.13;3.53;;;;;;;24.25;34.31;101332.94;4841291;29;20509;-70
2023/06/07 07:34:08;;;;;;;6.17;3.80;;;;;;;24.47;34.26;101340.88;4844882;29;20444;-72
2023/06/07 07:36:40;;;;;;;5.10;3.80;;;;;;;24.28;34.30;101342.63;4857610;29;20460;-70
2023/06/07 07:39:09;;;;;;;4.80;4.30;;;;;;;24.04;34.84;101341.56;4847426;29;20473;-72
2023/06/07 07:41:40;;;;;;;5.20;4.10;;;;;;;24.34;34.70;101337.91;4850535;29;20440;-71
2023/06/07 07:44:09;;;;;;;4.40;3.93;;;;;;;24.51;34.08;101339.19;4851875;29;20423;-72
2023/06/07 07:46:39;;;;;;;6.87;4.10;;;;;;;24.42;33.89;101345.59;4845033;29;20457;-70
2023/06/07 07:49:09;;;;;;;4.90;4.50;;;;;;;24.19;34.63;101336.03;4845064;29;20433;-71
2023/06/07 07:51:40;;;;;;;5.30;4.37;;;;;;;23.92;34.05;101349.31;4848912;29;20437;-72
2023/06/07 07:54:09;;;;;;;6.00;5.33;;;;;;;23.96;34.44;101345.75;4845474;29;20451;-71
2023/06/07 07:56:38;;;;;;;6.07;4.40;;;;;;;23.88;34.61;101339.94;4849934;29;20461;-72
2023/06/07 07:59:07;;;;;;;6.90;5.17;;;;;;;23.90;34.27;101337.72;4841077;29;20469;-71
2023/06/07 08:01:37;;;;;;;5.00;4.47;;;;;;;24.07;34.74;101341.81;4840704;29;20437;-71
2023/06/07 08:04:07;;;;;;;7.20;5.67;;;;;;;24.17;34.30;101341.81;4841806;29;20461;-71
2023/06/07 08:06:38;;;;;;;5.43;4.90;;;;;;;24.41;33.95;101332.88;4844766;29;20596;-72
2023/06/07 08:09:09;;;;;;;6.57;5.40;;;;;;;24.44;33.59;101338.69;4845966;29;20437;-72
2023/06/07 08:11:39;;;;;;;6.60;4.60;;;;;;;24.21;34.40;101333.78;4843902;29;20441;-71
2023/06/07 08:14:08;;;;;;;9.40;5.43;;;;;;;23.94;34.75;101338.81;4847772;29;20445;-73
2023/06/07 08:16:37;;;;;;;6.20;5.37;;;;;;;23.97;34.67;101339.09;4845337;29;20465;-71
2023/06/07 08:19:07;;;;;;;10.40;5.30;;;;;;;23.81;34.90;101338.31;4848356;29;20976;-73
2023/06/07 08:21:36;;;;;;;7.50;5.93;;;;;;;23.90;34.81;101334.97;4848147;29;20433;-70
2023/06/07 08:24:07;;;;;;;5.40;4.90;;;;;;;23.72;35.43;101336.41;4848148;29;20439;-69
2023/06/07 08:26:37;;;;;;;7.13;5.20;;;;;;;23.77;34.96;101339.97;4847026;29;20453;-69
2023/06/07 08:29:06;;;;;;;5.63;5.00;;;;;;;23.79;35.36;101325.88;4837387;29;20452;-70
2023/06/07 08:31:36;;;;;;;8.80;5.13;;;;;;;23.76;34.96;101326.44;4846843;29;20433;-70
2023/06/07 08:34:05;;;;;;;5.27;4.70;;;;;;;23.83;35.53;101326.97;4842755;29;20874;-70
2023/06/07 08:36:35;;;;;;;5.57;5.03;;;;;;;24.00;35.27;101327.47;4843976;29;20723;-69
2023/06/07 08:39:05;;;;;;;5.93;4.33;;;;;;;24.19;34.68;101324.97;4839129;29;20461;-70
2023/06/07 08:41:35;;;;;;;5.90;4.70;;;;;;;24.04;34.37;101338.81;4843612;29;20433;-70
2023/06/07 08:44:05;;;;;;;7.87;4.70;;;;;;;24.14;34.98;101324.94;4842667;29;20528;-70
2023/06/07 08:46:35;;;;;;;6.73;4.90;;;;;;;24.23;34.25;101331.56;4842936;29;20457;-70
2023/06/07 08:49:05;;;;;;;5.23;4.30;;;;;;;24.29;33.62;101322.16;4875532;29;20456;-71
2023/06/07 08:51:37;;;;;;;9.10;5.10;;;;;;;24.39;34.41;101327.66;4851407;29;20950;-71
2023/06/07 08:54:07;;;;;;;6.03;4.30;;;;;;;24.56;33.68;101332.81;4847322;29;20498;-70
2023/06/07 08:56:39;;;;;;;4.50;4.10;;;;;;;24.73;33.49;101324.16;4844897;29;20801;-70
2023/06/07 08:59:09;;;;;;;17.13;4.90;;;;;;;24.75;33.99;101327.44;4844980;29;20416;-69
2023/06/07 09:01:40;;;;;;;8.10;4.80;;;;;;;25.00;33.68;101327.31;4852409;29;20435;-69
2023/06/07 09:04:10;;;;;;;6.03;5.50;;;;;;;25.28;33.42;101326.53;4858527;29;20449;-68
2023/06/07 09:06:40;;;;;;;5.77;4.83;;;;;;;25.48;33.12;101320.81;4865203;29;20570;-69
2023/06/07 09:09:09;;;;;;;9.60;6.20;;;;;;;25.68;33.14;101319.00;4844989;29;20445;-69
2023/06/07 09:11:40;;;;;;;7.80;5.80;;;;;;;25.89;32.76;101326.81;4846818;29;20441;-67
2023/06/07 09:14:12;;;;;;;5.10;4.37;;;;;;;25.89;32.29;101321.25;4846067;29;20433;-71
2023/06/07 09:16:55;;;;;;;7.37;4.60;;;;;;;26.14;31.52;101331.22;4843937;29;20517;-68
2023/06/07 09:19:35;;;;;;;4.60;4.10;;;;;;;26.23;31.33;101321.19;4848753;29;20945;-70
2023/06/07 09:22:08;;;;;;;5.07;4.00;;;;;;;26.43;31.42;101317.31;4844069;29;20457;-70
2023/06/07 09:24:39;;;;;;;5.83;4.97;;;;;;;26.80;30.67;101317.34;4846617;29;20468;-69
2023/06/07 09:27:12;;;;;;;4.70;4.23;;;;;;;26.89;30.42;101323.06;4865860;29;20569;-69
2023/06/07 09:29:43;;;;;;;3.90;3.60;;;;;;;26.89;30.42;101317.50;4845191;29;20440;-68
2023/06/07 09:32:19;;;;;;;4.60;4.20;;;;;;;27.18;30.63;101322.88;4857383;29;20453;-68
2023/06/07 09:34:52;;;;;;;9.60;4.13;;;;;;;27.02;30.23;101327.00;4848572;29;20445;-69
2023/06/07 09:37:21;;;;;;;6.00;4.43;;;;;;;26.96;30.43;101311.59;4848181;29;20989;-68
2023/06/07 09:39:55;;;;;;;7.20;4.70;;;;;;;27.28;30.06;101303.25;4847868;29;20991;-68
2023/06/07 09:42:26;;;;;;;3.87;3.57;;;;;;;27.17;30.35;101316.50;4843826;29;20460;-69
2023/06/07 09:45:09;;;;;;;5.40;3.80;;;;;;;27.44;29.60;101312.16;4843370;29;20873;-68
2023/06/07 09:47:38;;;;;;;4.20;3.80;;;;;;;27.54;29.69;101312.03;4850558;29;20424;-67
2023/06/07 09:50:09;;;;;;;5.40;3.70;;;;;;;27.29;29.44;101309.66;4847708;29;20465;-69
2023/06/07 09:52:38;;;;;;;6.10;4.10;;;;;;;26.84;30.36;101314.78;4842794;29;20465;-68
2023/06/07 09:55:08;;;;;;;5.60;3.70;;;;;;;26.80;30.55;101303.44;4842475;29;20812;-68
2023/06/07 09:57:39;;;;;;;8.60;4.40;;;;;;;26.96;30.50;101306.03;4850008;29;20959;-68
2023/06/07 10:00:14;;;;;;;5.23;4.40;;;;;;;27.31;30.20;101304.59;4846436;29;20967;-68
2023/06/07 10:02:46;;;;;;;4.80;4.10;;;;;;;27.40;29.63;101300.81;4842972;29;20433;-66
2023/06/07 10:05:21;;;;;;;5.70;3.77;;;;;;;27.28;29.94;101305.22;4844455;29;20867;-68
2023/06/07 10:07:56;;;;;;;6.10;4.63;;;;;;;27.45;29.99;101309.06;4844960;29;20437;-69
2023/06/07 10:10:27;;;;;;;10.27;4.47;;;;;;;27.26;30.21;101305.50;4861944;29;20448;-70
2023/06/07 10:12:59;;;;;;;7.43;4.60;;;;;;;27.42;29.70;101304.13;4853062;29;20976;-68
2023/06/07 10:15:29;;;;;;;6.93;4.07;;;;;;;27.40;29.74;101291.69;4845663;29;20461;-68
2023/06/07 10:18:07;;;;;;;5.90;4.30;;;;;;;27.31;30.35;101299.03;4842115;29;20450;-70
2023/06/07 10:20:40;;;;;;;7.23;4.80;;;;;;;27.21;30.14;101297.25;4841739;29;20473;-67
2023/06/07 10:23:15;;;;;;;6.03;4.17;;;;;;;27.34;29.84;101292.88;4852566;29;20943;-68
2023/06/07 10:25:59;;;;;;;6.50;3.90;;;;;;;27.77;29.62;101297.13;4843373;29;20827;-67
2023/06/07 10:28:38;;;;;;;4.87;3.67;;;;;;;27.68;28.83;101290.63;4847955;29;20433;-67
2023/06/07 10:31:12;;;;;;;5.40;4.03;;;;;;;28.05;28.69;101290.44;4848924;29;20425;-68
2023/06/07 10:33:42;;;;;;;4.60;3.77;;;;;;;28.61;28.79;101286.44;4848660;29;20829;-68
2023/06/07 10:36:12;;;;;;;4.50;4.10;;;;;;;28.63;28.56;101288.91;4847021;29;20461;-68
2023/06/07 10:38:43;;;;;;;7.40;4.43;;;;;;;28.56;28.61;101278.22;4841829;29;20441;-68
2023/06/07 10:41:12;;;;;;;4.60;4.20;;;;;;;28.30;28.27;101274.34;4844181;29;20469;-67
2023/06/07 10:43:46;;;;;;;5.23;4.73;;;;;;;28.29;27.84;101278.25;4856085;29;20865;-67
2023/06/07 10:46:24;;;;;;;5.10;4.13;;;;;;;28.04;28.20;101271.25;4842280;29;20460;-67
2023/06/07 10:48:54;;;;;;;5.13;4.63;;;;;;;28.16;28.29;101284.69;4871324;29;20968;-68
2023/06/07 10:52:04;;;;;;;6.00;4.23;;;;;;;28.28;28.02;101268.25;4845910;29;20449;-68
2023/06/07 10:54:34;;;;;;;4.40;4.00;;;;;;;28.06;28.64;101275.38;4844586;29;20955;-68
2023/06/07 10:57:04;;;;;;;4.73;4.23;;;;;;;27.81;28.13;101277.84;4844168;29;20457;-68
2023/06/07 10:59:35;;;;;;;6.87;5.17;;;;;;;28.36;27.62;101264.75;4843234;29;20528;-69
2023/06/07 11:02:24;;;;;;;6.40;4.40;;;;;;;28.36;27.80;101268.38;4842812;29;21091;-68
2023/06/07 11:04:54;;;;;;;5.40;4.57;;;;;;;28.24;28.19;101267.25;4842607;29;20433;-67
2023/06/07 11:07:27;;;;;;;4.93;4.33;;;;;;;28.22;27.96;101267.56;4847016;29;20433;-68
2023/06/07 11:10:34;;;;;;;6.23;4.20;;;;;;;27.94;28.15;101265.91;4847950;29;20528;-68
2023/06/07 11:13:03;;;;;;;6.20;4.70;;;;;;;28.12;27.85;101262.22;4841013;29;20412;-68
2023/06/07 11:15:36;;;;;;;7.90;3.57;;;;;;;28.15;28.19;101267.16;4846324;29;20553;-68
2023/06/07 11:18:08;;;;;;;4.80;4.40;;;;;;;28.21;27.74;101265.09;4845705;29;20432;-69
2023/06/07 11:20:53;;;;;;;5.03;4.53;;;;;;;28.37;27.45;101258.88;4847375;29;20896;-68
2023/06/07 11:23:27;;;;;;;4.70;3.90;;;;;;;28.57;27.26;101257.56;4841204;29;20704;-68
2023/06/07 11:26:00;;;;;;;6.00;4.60;;;;;;;28.51;27.20;101265.22;4854135;29;20429;-69
2023/06/07 11:28:31;;;;;;;5.67;4.30;;;;;;;28.86;26.83;101255.22;4849485;29;20428;-69
2023/06/07 11:31:04;;;;;;;6.90;4.60;;;;;;;28.81;26.60;101241.44;4869859;23;20458;-68
2023/06/07 11:33:37;;;;;;;9.00;3.90;;;;;;;28.87;26.78;101256.88;4895398;29;20462;-68
2023/06/07 11:36:09;;;;;;;4.17;3.77;;;;;;;28.89;26.61;101257.41;4890280;29;20492;-69
2023/06/07 11:38:39;;;;;;;11.70;6.00;;;;;;;29.01;26.22;101259.59;4897106;29;20488;-67
2023/06/07 11:41:09;;;;;;;5.53;3.70;;;;;;;29.47;26.14;101259.28;4894346;29;20477;-67
2023/06/07 11:43:41;;;;;;;5.23;3.90;;;;;;;29.30;26.12;101270.28;4887101;29;20458;-67